Time;durP1;ratioP1;P1;durP2;ratioP2;P2;SDS_P1;SDS_P2;PMS_P1;PMS_P2;Temp;Humidity;BMP_temperature;BMP_pressure;BME280_temperature;BME280_humidity;BME280_pressure;Samples;Min_cycle;Max_cycle;Signal;HPM_P1;HPM_P2
2023/08/14 00:01:18;;;;;;;6.30;5.60;;;;;;;;;;4943041;28;20121;-51
2023/08/14 00:03:45;;;;;;;6.63;5.43;;;;;;;;;;4974978;28;20518;-51
2023/08/14 00:06:11;;;;;;;6.75;5.28;;;;;;;;;;4975000;28;20039;-51
2023/08/14 00:08:37;;;;;;;6.97;5.30;;;;;;;;;;4974707;28;20058;-51
2023/08/14 00:11:03;;;;;;;8.50;5.47;;;;;;;;;;4974993;28;20045;-51
2023/08/14 00:13:29;;;;;;;6.35;5.30;;;;;;;;;;4990423;28;20449;-51
2023/08/14 00:15:55;;;;;;;6.45;5.00;;;;;;;;;;4978224;28;20594;-51
2023/08/14 00:18:22;;;;;;;7.10;5.10;;;;;;;;;;4977856;28;20046;-51
2023/08/14 00:20:47;;;;;;;5.78;5.10;;;20.70;99.90;;;;;;4994048;28;20042;-51
2023/08/14 00:23:13;;;;;;;6.90;5.03;;;;;;;;;;4992414;28;20141;-51
2023/08/14 00:25:39;;;;;;;7.40;5.28;;;;;;;;;;4993373;28;20038;-52
2023/08/14 00:28:06;;;;;;;7.55;5.60;;;;;;;;;;4995676;28;20042;-52
2023/08/14 00:30:32;;;;;;;6.93;5.72;;;20.50;99.90;;;;;;4996099;28;20066;-51
2023/08/14 00:32:58;;;;;;;6.50;5.18;;;20.40;99.90;;;;;;4996055;28;20064;-51
2023/08/14 00:35:23;;;;;;;6.13;4.78;;;20.40;99.90;;;;;;4996100;28;20041;-52
2023/08/14 00:37:49;;;;;;;6.03;5.35;;;20.20;99.90;;;;;;4996163;28;20038;-52
2023/08/14 00:40:16;;;;;;;6.53;4.90;;;20.20;99.90;;;;;;4995807;28;20041;-51
2023/08/14 00:42:45;;;;;;;8.43;6.13;;;20.10;99.90;;;;;;4995782;28;20117;-52
2023/08/14 00:45:11;;;;;;;6.45;5.22;;;20.10;99.90;;;;;;4995869;28;20069;-52
2023/08/14 00:47:39;;;;;;;7.60;5.78;;;20.10;99.90;;;;;;4996367;28;20058;-52
2023/08/14 00:50:07;;;;;;;7.55;5.80;;;20.20;99.90;;;;;;4995757;28;20474;-52
2023/08/14 00:52:37;;;;;;;6.85;5.70;;;20.20;99.90;;;;;;4993578;28;20414;-52
2023/08/14 00:55:07;;;;;;;8.60;6.03;;;20.00;99.90;;;;;;4995571;28;20030;-52
2023/08/14 00:57:33;;;;;;;7.40;6.05;;;20.00;99.90;;;;;;4994056;28;20096;-51
2023/08/14 01:00:01;;;;;;;7.55;6.07;;;20.00;99.90;;;;;;4992998;28;20050;-52
2023/08/14 01:02:27;;;;;;;7.75;5.80;;;19.90;99.90;;;;;;4995322;28;20049;-51
2023/08/14 01:04:53;;;;;;;9.73;6.38;;;19.90;99.90;;;;;;4995325;28;20093;-52
2023/08/14 01:07:19;;;;;;;9.85;7.95;;;19.90;99.90;;;;;;4995167;28;20042;-52
2023/08/14 01:09:46;;;;;;;9.25;6.15;;;19.90;99.90;;;;;;4995460;28;20034;-52
2023/08/14 01:12:45;;;;;;;8.43;6.22;;;20.10;99.90;;;;;;5009924;28;20092;-52
2023/08/14 01:15:15;;;;;;;8.05;6.78;;;20.00;99.90;;;;;;4995132;28;20053;-52
2023/08/14 01:17:48;;;;;;;8.68;6.95;;;20.00;99.90;;;;;;4995114;28;20065;-52
2023/08/14 01:20:17;;;;;;;6.75;6.05;;;20.00;99.90;;;;;;4995363;28;20042;-52
2023/08/14 01:22:50;;;;;;;8.13;6.50;;;;;;;;;;4995242;28;20054;-52
2023/08/14 01:25:31;;;;;;;8.80;6.40;;;19.60;99.90;;;;;;4995419;28;20437;-51
2023/08/14 01:27:59;;;;;;;6.93;5.90;;;19.60;99.90;;;;;;4994864;28;20041;-51
2023/08/14 01:30:24;;;;;;;9.90;5.82;;;19.60;99.90;;;;;;4995023;28;20389;-52
2023/08/14 01:32:51;;;;;;;9.02;6.20;;;;;;;;;;4995019;28;20034;-52
2023/08/14 01:35:20;;;;;;;6.72;5.68;;;19.50;99.90;;;;;;4994957;28;20041;-52
2023/08/14 01:37:49;;;;;;;8.05;5.80;;;;;;;;;;4994988;28;20117;-52
2023/08/14 01:41:09;;;;;;;7.68;6.35;;;19.50;99.90;;;;;;4994743;28;20110;-51
2023/08/14 01:43:40;;;;;;;6.60;6.00;;;19.60;99.90;;;;;;4978450;28;20528;-52
2023/08/14 01:46:08;;;;;;;8.57;6.13;;;19.60;99.90;;;;;;4994470;28;20474;-52
2023/08/14 01:48:36;;;;;;;15.05;7.00;;;19.50;99.90;;;;;;4994802;28;20117;-52
2023/08/14 01:51:02;;;;;;;10.13;6.60;;;19.50;99.90;;;;;;4994473;28;20038;-51
2023/08/14 01:53:28;;;;;;;9.35;6.90;;;19.50;99.90;;;;;;4994728;28;20038;-52
2023/08/14 01:55:54;;;;;;;8.65;6.55;;;19.50;99.90;;;;;;4994713;28;20422;-51
2023/08/14 01:58:20;;;;;;;10.65;7.85;;;19.50;99.90;;;;;;4994302;28;20061;-51
2023/08/14 02:00:45;;;;;;;9.50;6.20;;;19.40;99.90;;;;;;4994806;28;20034;-52
2023/08/14 02:03:11;;;;;;;9.63;6.90;;;19.20;99.90;;;;;;4994300;28;20057;-52
2023/08/14 02:05:37;;;;;;;10.32;7.78;;;19.20;99.90;;;;;;4976529;28;20042;-51
2023/08/14 02:08:03;;;;;;;9.00;6.90;;;19.30;99.90;;;;;;4993967;28;20137;-51
2023/08/14 02:10:28;;;;;;;9.07;7.60;;;19.30;99.90;;;;;;5008740;28;20126;-51
2023/08/14 02:12:54;;;;;;;10.52;7.00;;;19.30;99.90;;;;;;4994699;28;20027;-51
2023/08/14 02:15:20;;;;;;;8.35;7.18;;;19.40;99.90;;;;;;4994468;28;20034;-52
2023/08/14 02:17:46;;;;;;;11.93;7.15;;;19.40;99.90;;;;;;4994479;28;20038;-52
2023/08/14 02:20:14;;;;;;;10.35;7.38;;;19.50;99.90;;;;;;4994009;28;20162;-52
2023/08/14 02:22:39;;;;;;;10.38;6.65;;;19.40;99.90;;;;;;4992161;28;20042;-51
2023/08/14 02:25:06;;;;;;;9.57;7.22;;;19.40;99.90;;;;;;4994207;28;20026;-51
2023/08/14 02:27:32;;;;;;;8.88;7.18;;;19.50;99.90;;;;;;4992507;28;20455;-51
2023/08/14 02:29:58;;;;;;;9.68;7.60;;;19.40;99.90;;;;;;4992121;28;20109;-52
2023/08/14 02:32:24;;;;;;;7.47;6.72;;;19.40;99.90;;;;;;4993994;28;20386;-51
2023/08/14 02:34:52;;;;;;;8.20;7.03;;;19.40;99.90;;;;;;4994142;28;20030;-52
2023/08/14 02:37:19;;;;;;;8.18;6.80;;;19.40;99.90;;;;;;4994107;28;20030;-52
2023/08/14 02:39:45;;;;;;;7.45;6.50;;;19.40;99.90;;;;;;4994278;28;20030;-51
2023/08/14 02:42:11;;;;;;;9.60;7.00;;;19.40;99.90;;;;;;4993715;28;20030;-52
2023/08/14 02:44:40;;;;;;;9.90;6.95;;;19.30;99.90;;;;;;4991773;28;20080;-52
2023/08/14 02:47:06;;;;;;;7.40;6.63;;;19.20;99.90;;;;;;4958971;28;20045;-52
2023/08/14 02:49:31;;;;;;;7.95;7.15;;;19.30;99.90;;;;;;4991842;28;20438;-52
2023/08/14 02:51:57;;;;;;;12.38;7.65;;;19.30;99.90;;;;;;4991676;28;20121;-52
2023/08/14 02:54:23;;;;;;;10.25;7.35;;;19.30;99.90;;;;;;4991632;28;20030;-52
2023/08/14 02:56:49;;;;;;;8.23;7.30;;;19.40;99.90;;;;;;4959074;28;20039;-52
2023/08/14 02:59:15;;;;;;;11.57;7.55;;;19.30;99.90;;;;;;4991425;28;20039;-52
2023/08/14 03:01:41;;;;;;;10.60;7.22;;;19.40;99.90;;;;;;4991487;28;20038;-51
2023/08/14 03:04:07;;;;;;;10.10;8.00;;;19.30;99.90;;;;;;4991558;28;20520;-52
2023/08/14 03:06:33;;;;;;;13.35;8.07;;;19.30;99.90;;;;;;4992012;28;20117;-52
2023/08/14 03:08:59;;;;;;;11.75;7.57;;;19.30;99.90;;;;;;4991307;28;20060;-52
2023/08/14 03:11:25;;;;;;;15.40;7.53;;;19.40;99.90;;;;;;4992003;28;20043;-52
2023/08/14 03:13:51;;;;;;;6.88;6.18;;;19.30;99.90;;;;;;4991564;28;20137;-52
2023/08/14 03:16:17;;;;;;;7.50;6.80;;;19.10;99.90;;;;;;4993192;28;20034;-52
2023/08/14 03:18:43;;;;;;;7.70;6.47;;;;;;;;;;4993800;28;20022;-51
2023/08/14 03:21:09;;;;;;;7.57;6.80;;;18.80;99.90;;;;;;4993790;28;20030;-52
2023/08/14 03:23:35;;;;;;;6.93;5.70;;;18.90;99.90;;;;;;4996409;28;20037;-51
2023/08/14 03:26:02;;;;;;;11.05;6.95;;;18.80;99.90;;;;;;4997083;28;20033;-51
2023/08/14 03:28:28;;;;;;;7.63;5.80;;;18.90;99.90;;;;;;4997657;28;20097;-52
2023/08/14 03:30:54;;;;;;;9.75;6.35;;;18.90;99.90;;;;;;4997205;28;20522;-52
2023/08/14 03:33:20;;;;;;;7.18;5.97;;;18.90;99.90;;;;;;4997262;28;20058;-52
2023/08/14 03:35:46;;;;;;;9.80;6.40;;;;;;;;;;4997029;28;20117;-52
2023/08/14 03:38:12;;;;;;;11.68;6.45;;;18.80;99.90;;;;;;4997060;28;20065;-52
2023/08/14 03:40:37;;;;;;;7.25;6.55;;;18.80;99.90;;;;;;4997502;28;20066;-52
2023/08/14 03:43:03;;;;;;;8.80;6.53;;;18.70;99.90;;;;;;4997189;28;20125;-53
2023/08/14 03:45:29;;;;;;;10.68;6.57;;;18.60;99.90;;;;;;4997199;28;20105;-52
2023/08/14 03:47:55;;;;;;;8.40;7.53;;;18.80;99.90;;;;;;4996937;28;20105;-52
2023/08/14 03:50:20;;;;;;;15.60;7.40;;;18.90;99.90;;;;;;4995016;28;20046;-52
2023/08/14 03:52:48;;;;;;;8.05;7.25;;;18.90;99.90;;;;;;4957883;28;20118;-52
2023/08/14 03:55:14;;;;;;;10.77;7.35;;;19.00;99.90;;;;;;4996995;28;20362;-52
2023/08/14 03:57:40;;;;;;;9.98;7.43;;;19.00;99.90;;;;;;4994896;28;20398;-52
2023/08/14 04:00:06;;;;;;;8.77;7.03;;;19.00;99.90;;;;;;4996504;28;20080;-52
2023/08/14 04:02:32;;;;;;;8.23;7.00;;;19.00;99.90;;;;;;4994796;28;20052;-52
2023/08/14 04:04:58;;;;;;;9.25;6.90;;;18.80;99.90;;;;;;4996662;28;20156;-52
2023/08/14 04:07:24;;;;;;;7.65;6.95;;;18.60;99.90;;;;;;4996323;28;20467;-52
2023/08/14 04:09:49;;;;;;;7.70;6.90;;;18.70;99.90;;;;;;4996348;28;20022;-52
2023/08/14 04:12:15;;;;;;;9.40;6.90;;;18.70;99.90;;;;;;4996415;28;20023;-52
2023/08/14 04:14:43;;;;;;;7.95;6.47;;;18.60;99.90;;;;;;4994631;28;20043;-52
2023/08/14 04:17:09;;;;;;;7.75;7.00;;;18.70;99.90;;;;;;4996155;28;20030;-52
2023/08/14 04:19:34;;;;;;;7.82;7.00;;;18.90;99.90;;;;;;4996419;28;20037;-52
2023/08/14 04:22:00;;;;;;;8.00;7.18;;;19.00;99.90;;;;;;4996308;28;20081;-52
2023/08/14 04:24:26;;;;;;;10.63;7.18;;;19.00;99.90;;;;;;4996034;28;20025;-52
2023/08/14 04:26:52;;;;;;;10.35;7.55;;;19.10;99.90;;;;;;5027129;28;20084;-52
2023/08/14 04:29:17;;;;;;;10.20;7.00;;;19.20;99.90;;;;;;5027261;28;20100;-52
2023/08/14 04:31:43;;;;;;;9.93;7.38;;;19.00;99.90;;;;;;5026490;28;20038;-52
2023/08/14 04:34:10;;;;;;;9.60;7.38;;;19.10;99.90;;;;;;4994617;28;20482;-52
2023/08/14 04:36:36;;;;;;;20.58;7.55;;;19.20;99.90;;;;;;4996228;28;20065;-52
2023/08/14 04:39:04;;;;;;;14.50;6.95;;;19.30;99.90;;;;;;4995993;28;20080;-52
2023/08/14 04:41:30;;;;;;;12.57;7.25;;;19.40;99.90;;;;;;4993682;28;20081;-52
2023/08/14 04:43:56;;;;;;;11.13;7.57;;;19.50;99.90;;;;;;4995920;28;20109;-52
2023/08/14 04:46:32;;;;;;;11.07;7.07;;;19.60;99.90;;;;;;4996094;28;20109;-52
2023/08/14 04:48:59;;;;;;;12.15;7.72;;;19.70;99.90;;;;;;4996252;28;20374;-51
2023/08/14 04:51:26;;;;;;;15.57;7.90;;;19.70;99.90;;;;;;4995938;28;20118;-52
2023/08/14 04:53:53;;;;;;;13.00;8.30;;;19.60;99.90;;;;;;4995701;28;20080;-52
2023/08/14 04:56:19;;;;;;;10.40;9.05;;;19.40;99.90;;;;;;4995606;28;20481;-52
2023/08/14 04:58:45;;;;;;;9.77;8.82;;;19.60;99.90;;;;;;4995707;28;20026;-52
2023/08/14 05:01:11;;;;;;;12.32;8.50;;;19.80;99.90;;;;;;4995656;28;20026;-52
2023/08/14 05:03:37;;;;;;;9.93;8.02;;;19.90;99.90;;;;;;4977126;28;20389;-52
2023/08/14 05:06:03;;;;;;;11.70;8.43;;;;;;;;;;4995388;28;20466;-52
2023/08/14 05:08:30;;;;;;;9.93;8.98;;;;;;;;;;4993279;28;20054;-52
2023/08/14 05:10:57;;;;;;;10.65;8.10;;;;;;;;;;4994840;28;20057;-52
2023/08/14 05:13:23;;;;;;;11.52;9.15;;;;;;;;;;4994932;28;20061;-52
2023/08/14 05:15:50;;;;;;;13.48;8.55;;;;;;;;;;4995379;28;20166;-52
2023/08/14 05:18:16;;;;;;;11.45;8.75;;;;;;;;;;4995168;28;20047;-52
2023/08/14 05:20:43;;;;;;;10.88;8.15;;;;;;;;;;4994876;28;20029;-53
2023/08/14 05:23:10;;;;;;;11.52;8.73;;;;;;;;;;4994959;28;20501;-52
2023/08/14 05:25:36;;;;;;;12.07;9.60;;;;;;;;;;4994845;28;20026;-52
2023/08/14 05:28:02;;;;;;;10.35;9.30;;;;;;;;;;4994813;28;20034;-52
2023/08/14 05:30:28;;;;;;;10.13;9.02;;;;;;;;;;4994978;28;20119;-53
2023/08/14 05:32:54;;;;;;;14.27;11.52;;;21.10;99.90;;;;;;5009535;28;20042;-52
2023/08/14 05:35:23;;;;;;;11.20;9.48;;;21.20;99.90;;;;;;4994715;28;20089;-52
2023/08/14 05:37:52;;;;;;;13.77;9.70;;;21.40;99.90;;;;;;4994888;28;20427;-53
2023/08/14 05:40:19;;;;;;;11.45;9.30;;;;;;;;;;4994256;28;20062;-53
2023/08/14 05:43:00;;;;;;;13.52;10.27;;;21.60;99.90;;;;;;4995029;28;20401;-52
2023/08/14 05:45:26;;;;;;;17.73;9.77;;;21.80;99.90;;;;;;4993728;28;20382;-53
2023/08/14 05:47:52;;;;;;;11.50;8.73;;;21.80;99.90;;;;;;4994278;28;20043;-53
2023/08/14 05:50:20;;;;;;;16.23;10.25;;;21.80;99.90;;;;;;4993954;28;20478;-53
2023/08/14 05:52:47;;;;;;;15.98;9.45;;;21.80;99.90;;;;;;4992231;28;20121;-52
2023/08/14 05:55:12;;;;;;;10.75;8.98;;;22.00;99.90;;;;;;4993964;28;20034;-53
2023/08/14 05:57:38;;;;;;;11.88;8.55;;;22.00;99.90;;;;;;4991850;28;20046;-52
2023/08/14 06:00:05;;;;;;;10.82;9.10;;;;;;;;;;4994038;28;20026;-53
2023/08/14 06:02:30;;;;;;;12.07;8.93;;;22.40;99.90;;;;;;4994002;28;20113;-53
2023/08/14 06:04:56;;;;;;;13.40;9.65;;;22.60;99.90;;;;;;4991562;28;20144;-51
2023/08/14 06:07:22;;;;;;;9.43;7.85;;;22.40;99.90;;;;;;4990701;28;20023;-52
2023/08/14 06:09:48;;;;;;;11.30;8.82;;;22.40;99.90;;;;;;4991646;28;20045;-53
2023/08/14 06:12:14;;;;;;;10.60;8.20;;;22.40;99.90;;;;;;5008485;28;20034;-51
2023/08/14 06:14:40;;;;;;;12.68;9.07;;;;;;;;;;4976020;28;20117;-53
2023/08/14 06:17:06;;;;;;;10.35;8.77;;;;;;;;;;4992170;28;20042;-52
2023/08/14 06:19:32;;;;;;;9.98;8.98;;;22.90;99.90;;;;;;4994017;28;20032;-52
2023/08/14 06:21:57;;;;;;;10.43;8.95;;;23.10;99.90;;;;;;4994370;28;20124;-52
2023/08/14 06:24:23;;;;;;;16.17;8.98;;;23.20;99.90;;;;;;4991551;28;20030;-52
2023/08/14 06:26:49;;;;;;;12.50;7.97;;;23.40;99.90;;;;;;4943332;28;20046;-52
2023/08/14 06:29:15;;;;;;;10.57;7.78;;;23.60;99.90;;;;;;4975584;28;20050;-52
2023/08/14 06:31:41;;;;;;;11.00;7.57;;;;;;;;;;4991693;28;20032;-51
2023/08/14 06:34:07;;;;;;;13.85;7.85;;;;;;;;;;4991821;28;20080;-53
2023/08/14 06:36:32;;;;;;;9.25;7.20;;;24.10;99.90;;;;;;4975542;28;20069;-53
2023/08/14 06:38:58;;;;;;;7.82;6.63;;;24.20;99.90;;;;;;4975632;28;20499;-54
2023/08/14 06:41:24;;;;;;;11.85;6.07;;;24.20;99.90;;;;;;4991568;28;20077;-52
2023/08/14 06:43:50;;;;;;;7.93;6.07;;;24.30;99.90;;;;;;4975412;28;20042;-52
2023/08/14 06:46:15;;;;;;;8.13;5.60;;;24.40;99.90;;;;;;4991789;28;20169;-51
2023/08/14 06:48:41;;;;;;;9.48;5.60;;;;;;;;;;4991422;28;20031;-52
2023/08/14 06:51:07;;;;;;;5.93;5.28;;;;;;;;;;4991797;28;20046;-52
2023/08/14 06:53:34;;;;;;;7.82;6.05;;;;;;;;;;4991784;28;20022;-52
2023/08/14 06:56:00;;;;;;;8.02;5.97;;;;;;;;;;4989098;28;20038;-52
2023/08/14 06:58:25;;;;;;;8.80;6.57;;;25.30;99.90;;;;;;4994238;28;20042;-51
2023/08/14 07:00:52;;;;;;;9.40;7.13;;;;;;;;;;4996346;28;20026;-51
2023/08/14 07:03:18;;;;;;;9.50;7.30;;;;;;;;;;4976904;28;20054;-53
2023/08/14 07:05:44;;;;;;;7.97;6.50;;;;;;;;;;4996760;28;20042;-54
2023/08/14 07:08:10;;;;;;;9.07;6.95;;;;;;;;;;4996756;28;20128;-54
2023/08/14 07:10:36;;;;;;;10.93;6.43;;;;;;;;;;4996667;28;20022;-51
2023/08/14 07:13:02;;;;;;;12.75;6.25;;;;;;;;;;4996501;28;20114;-53
2023/08/14 07:15:28;;;;;;;9.65;6.03;;;;;;;;;;4991580;28;20113;-53
2023/08/14 07:17:54;;;;;;;7.25;5.50;;;;;;;;;;4987335;28;20030;-50
2023/08/14 07:20:20;;;;;;;13.10;5.80;;;;;;;;;;4996849;28;20030;-50
2023/08/14 07:22:46;;;;;;;7.68;5.72;;;;;;;;;;4996434;28;20088;-50
2023/08/14 07:25:13;;;;;;;7.80;5.30;;;26.60;99.90;;;;;;4997271;28;20031;-50
2023/08/14 07:27:39;;;;;;;6.85;5.20;;;;;;;;;;4996374;28;20038;-51
2023/08/14 07:30:05;;;;;;;8.98;5.25;;;27.00;99.90;;;;;;4997144;28;20026;-53
2023/08/14 07:32:31;;;;;;;8.02;6.00;;;26.90;99.90;;;;;;4995267;28;20084;-51
2023/08/14 07:34:57;;;;;;;7.95;5.30;;;27.10;99.90;;;;;;4997066;28;20038;-52
2023/08/14 07:37:23;;;;;;;6.82;5.32;;;;;;;;;;4996738;28;20034;-53
2023/08/14 07:39:49;;;;;;;7.10;5.35;;;27.50;99.90;;;;;;4989171;28;20030;-52
2023/08/14 07:42:15;;;;;;;7.43;5.03;;;;;;;;;;4977697;28;20049;-54
2023/08/14 07:44:41;;;;;;;9.63;5.32;;;27.70;99.90;;;;;;4977422;28;20034;-54
2023/08/14 07:47:07;;;;;;;7.35;6.10;;;27.70;99.90;;;;;;4977519;28;20023;-54
2023/08/14 07:49:35;;;;;;;7.72;5.30;;;27.70;99.90;;;;;;4975190;28;20090;-54
2023/08/14 07:52:21;;;;;;;9.40;6.05;;;27.80;99.90;;;;;;4975242;28;20049;-55
2023/08/14 07:54:47;;;;;;;9.23;5.72;;;;;;;;;;4987816;28;20038;-51
2023/08/14 07:57:13;;;;;;;10.52;5.68;;;;;;;;;;4991597;28;20039;-54
2023/08/14 07:59:39;;;;;;;8.75;5.88;;;;;;;;;;4990630;28;20037;-52
2023/08/14 08:02:05;;;;;;;6.95;6.22;;;28.50;99.90;;;;;;4993855;28;20117;-56
2023/08/14 08:04:36;;;;;;;8.38;5.45;;;28.50;99.90;;;;;;4994275;28;20483;-54
2023/08/14 08:07:02;;;;;;;8.27;4.90;;;28.70;99.90;;;;;;4993580;28;20072;-52
2023/08/14 08:09:28;;;;;;;7.25;4.70;;;28.60;99.90;;;;;;4993890;28;20058;-54
2023/08/14 08:11:54;;;;;;;7.30;4.53;;;28.90;99.90;;;;;;4977850;28;20045;-54
2023/08/14 08:14:19;;;;;;;9.70;4.15;;;29.00;99.90;;;;;;4994072;28;20045;-51
2023/08/14 08:16:47;;;;;;;6.45;4.47;;;;;;;;;;4993950;28;20065;-51
2023/08/14 08:19:13;;;;;;;6.57;4.13;;;;;;;;;;4993921;28;20041;-54
2023/08/14 08:21:39;;;;;;;8.77;5.07;;;;;;;;;;5012634;28;20084;-55
2023/08/14 08:24:05;;;;;;;8.20;4.13;;;29.80;99.90;;;;;;5013624;28;20038;-55
2023/08/14 08:26:31;;;;;;;11.05;4.60;;;29.80;99.90;;;;;;4999490;28;20043;-54
2023/08/14 08:28:57;;;;;;;9.68;5.80;;;29.80;99.90;;;;;;4978299;28;20253;-51
2023/08/14 08:31:23;;;;;;;13.10;6.28;;;30.20;99.90;;;;;;4994497;28;20046;-53
2023/08/14 08:33:49;;;;;;;11.48;7.05;;;;;;;;;;5027047;28;20145;-52
2023/08/14 08:36:17;;;;;;;11.43;5.90;;;;;;;;;;4996012;28;20039;-52
2023/08/14 08:38:44;;;;;;;5.93;4.45;;;;;;;;;;4995552;28;20474;-53
2023/08/14 08:41:20;;;;;;;7.80;4.88;;;30.30;99.90;;;;;;4995539;28;20470;-53
2023/08/14 08:43:47;;;;;;;4.90;4.22;;;;;;;;;;4995499;28;20508;-55
2023/08/14 08:46:13;;;;;;;7.50;5.28;;;;;;;;;;5026519;28;20034;-52
2023/08/14 08:48:42;;;;;;;7.70;4.60;;;30.30;99.90;;;;;;4995520;28;20482;-54
2023/08/14 08:51:09;;;;;;;8.02;4.70;;;30.30;99.90;;;;;;4995872;28;20033;-55
2023/08/14 08:53:36;;;;;;;6.50;4.53;;;;;;;;;;4995449;28;20046;-55
2023/08/14 08:56:02;;;;;;;5.22;4.30;;;;;;;;;;4994126;28;20488;-52
2023/08/14 08:58:29;;;;;;;6.47;5.00;;;31.00;99.90;;;;;;4995191;28;20121;-52
2023/08/14 09:00:55;;;;;;;6.80;4.55;;;30.90;99.90;;;;;;4995514;28;20022;-52
2023/08/14 09:03:22;;;;;;;5.82;4.18;;;31.00;99.90;;;;;;5009523;28;20053;-51
2023/08/14 09:05:47;;;;;;;4.28;3.70;;;31.50;99.90;;;;;;4995299;28;20030;-55
2023/08/14 09:08:13;;;;;;;5.55;4.60;;;;;;;;;;4995103;28;20046;-53
2023/08/14 09:10:39;;;;;;;6.55;4.22;;;31.40;99.90;;;;;;4995346;28;20100;-52
2023/08/14 09:13:05;;;;;;;8.38;5.07;;;31.60;99.90;;;;;;4995396;28;20030;-54
2023/08/14 09:15:31;;;;;;;4.50;4.10;;;31.50;99.90;;;;;;4995377;28;20356;-52
2023/08/14 09:17:56;;;;;;;4.80;4.13;;;31.40;99.90;;;;;;4994945;28;20070;-51
2023/08/14 09:20:22;;;;;;;6.43;5.20;;;32.00;99.90;;;;;;4994352;28;20030;-51
2023/08/14 09:22:48;;;;;;;6.60;5.07;;;32.30;99.90;;;;;;4994773;28;20034;-55
2023/08/14 09:25:15;;;;;;;6.10;4.75;;;32.20;99.90;;;;;;4993110;28;20378;-52
2023/08/14 09:27:42;;;;;;;7.03;4.78;;;32.20;99.90;;;;;;4994839;28;20109;-53
2023/08/14 09:30:11;;;;;;;6.35;5.22;;;;;;;;;;4993100;28;20054;-53
2023/08/14 09:32:38;;;;;;;5.38;4.85;;;;;;;;;;4995088;28;20027;-54
2023/08/14 09:35:05;;;;;;;8.73;4.70;;;;;;;;;;4994601;28;20034;-54
2023/08/14 09:37:30;;;;;;;6.50;5.57;;;32.30;99.90;;;;;;4994630;28;20026;-53
2023/08/14 09:40:16;;;;;;;6.55;5.35;;;32.30;99.90;;;;;;4994912;28;20029;-53
2023/08/14 09:42:46;;;;;;;5.72;5.10;;;32.30;99.90;;;;;;4994633;28;20097;-54
2023/08/14 09:45:14;;;;;;;5.05;4.55;;;32.40;99.90;;;;;;5009172;28;20390;-54
2023/08/14 09:47:44;;;;;;;10.48;6.78;;;32.40;99.90;;;;;;5008925;28;20046;-54
2023/08/14 09:50:13;;;;;;;7.85;5.22;;;;;;;;;;5011403;28;20026;-53
2023/08/14 09:52:39;;;;;;;6.68;4.97;;;;;;;;;;5013959;28;20029;-54
2023/08/14 09:55:06;;;;;;;5.22;4.45;;;33.30;99.80;;;;;;5014096;28;20076;-51
2023/08/14 09:57:33;;;;;;;5.75;5.15;;;33.40;99.90;;;;;;5028343;28;20060;-55
2023/08/14 09:59:59;;;;;;;7.25;5.00;;;;;;;;;;5028573;28;20034;-55
2023/08/14 10:02:26;;;;;;;8.00;6.35;;;33.30;99.50;;;;;;5013890;28;20030;-54
2023/08/14 10:04:52;;;;;;;7.55;4.47;;;;;;;;;;5013717;28;20034;-52
2023/08/14 10:07:19;;;;;;;7.03;6.30;;;33.40;98.90;;;;;;5013579;28;20109;-54
2023/08/14 10:09:51;;;;;;;5.72;5.10;;;33.90;99.90;;;;;;5013767;28;20029;-54
2023/08/14 10:12:18;;;;;;;6.70;4.85;;;;;;;;;;5013850;28;20057;-53
2023/08/14 10:14:48;;;;;;;5.00;4.40;;;;;;;;;;5013741;28;20084;-53
2023/08/14 10:17:21;;;;;;;7.88;5.20;;;34.30;99.90;;;;;;5012748;28;20084;-54
2023/08/14 10:19:50;;;;;;;6.35;4.80;;;;;;;;;;4992136;28;20109;-54
2023/08/14 10:22:16;;;;;;;5.07;4.30;;;;;;;;;;4993274;28;20030;-52
2023/08/14 10:24:44;;;;;;;4.93;4.05;;;34.10;98.90;;;;;;4993532;28;20022;-52
2023/08/14 10:27:10;;;;;;;5.63;4.72;;;33.60;98.40;;;;;;4993667;28;20080;-53
2023/08/14 10:29:37;;;;;;;6.53;4.60;;;33.30;98.60;;;;;;4962280;28;20072;-51
2023/08/14 10:32:05;;;;;;;9.02;5.43;;;32.70;99.90;;;;;;4992307;28;20023;-53
2023/08/14 10:34:32;;;;;;;5.03;4.53;;;33.30;99.90;;;;;;4993791;28;20044;-50
2023/08/14 10:36:58;;;;;;;8.10;4.78;;;33.20;99.90;;;;;;4990065;28;20041;-51
2023/08/14 10:39:35;;;;;;;5.57;4.95;;;;;;;;;;4992723;28;20034;-54
2023/08/14 10:42:01;;;;;;;5.30;4.80;;;;;;;;;;4993890;28;20037;-54
2023/08/14 10:44:36;;;;;;;11.05;6.38;;;34.80;98.50;;;;;;4993742;28;20466;-55
2023/08/14 10:47:11;;;;;;;5.43;4.47;;;;;;;;;;4994198;28;20022;-52
2023/08/14 10:49:49;;;;;;;6.38;4.22;;;;;;;;;;4993544;28;20049;-55
2023/08/14 10:52:16;;;;;;;6.40;4.95;;;;;;;;;;4993608;28;20528;-54
2023/08/14 10:54:44;;;;;;;7.05;4.65;;;;;;;;;;4993702;28;20026;-55
2023/08/14 10:57:14;;;;;;;7.18;5.78;;;;;;;;;;4993612;28;20039;-54
2023/08/14 10:59:43;;;;;;;8.05;5.70;;;35.30;97.70;;;;;;4993726;28;20089;-52
2023/08/14 11:02:16;;;;;;;9.20;4.38;;;35.70;98.40;;;;;;4993432;28;20033;-52
2023/08/14 11:05:01;;;;;;;6.85;4.97;;;;;;;;;;4993868;28;20069;-54
2023/08/14 11:07:32;;;;;;;8.25;4.43;;;35.40;96.80;;;;;;5008057;28;20393;-52
2023/08/14 11:09:59;;;;;;;6.00;4.47;;;35.60;97.10;;;;;;4993450;28;20042;-52
2023/08/14 11:12:25;;;;;;;6.45;4.90;;;35.80;96.90;;;;;;4993609;28;20386;-55
2023/08/14 11:14:52;;;;;;;8.65;4.85;;;35.70;96.80;;;;;;4993512;28;20048;-52
2023/08/14 11:17:18;;;;;;;5.20;3.83;;;36.30;97.20;;;;;;4993069;28;20101;-53
2023/08/14 11:19:44;;;;;;;4.85;4.05;;;34.90;94.10;;;;;;4991385;28;20030;-54
2023/08/14 11:22:10;;;;;;;5.90;4.25;;;34.40;95.00;;;;;;5006250;28;20501;-51
2023/08/14 11:24:39;;;;;;;5.00;4.53;;;35.10;95.20;;;;;;5007475;28;20037;-55
2023/08/14 11:27:04;;;;;;;5.75;5.03;;;35.30;95.70;;;;;;4992769;28;20018;-50
2023/08/14 11:29:30;;;;;;;7.55;4.55;;;35.40;99.30;;;;;;5007628;28;20537;-54
2023/08/14 11:31:57;;;;;;;6.18;4.60;;;35.20;96.50;;;;;;4992655;28;20034;-54
2023/08/14 11:34:23;;;;;;;7.22;4.32;;;35.70;96.10;;;;;;4992944;28;20026;-54
2023/08/14 11:37:00;;;;;;;6.38;3.97;;;35.90;94.70;;;;;;4974824;28;20470;-55
2023/08/14 11:39:29;;;;;;;8.20;4.00;;;35.70;94.70;;;;;;5006717;28;20039;-53
2023/08/14 11:41:55;;;;;;;5.43;4.00;;;35.10;94.40;;;;;;4992689;28;20513;-56
2023/08/14 11:44:21;;;;;;;5.35;4.30;;;34.50;94.70;;;;;;4995257;28;20117;-53
2023/08/14 11:46:50;;;;;;;8.63;5.28;;;;;;;;;;4994564;28;20395;-53
2023/08/14 11:49:16;;;;;;;8.00;5.63;;;35.80;95.90;;;;;;4991451;28;20030;-50
2023/08/14 11:51:42;;;;;;;8.20;4.78;;;35.80;95.20;;;;;;4996294;28;20026;-54
2023/08/14 11:54:09;;;;;;;6.50;5.13;;;35.90;95.30;;;;;;4995853;28;20045;-53
2023/08/14 11:56:37;;;;;;;6.72;4.35;;;35.60;95.60;;;;;;4994384;28;20439;-55
2023/08/14 11:59:04;;;;;;;8.32;4.80;;;35.30;95.90;;;;;;4994938;28;20057;-54
2023/08/14 12:01:32;;;;;;;7.22;4.70;;;;;;;;;;4994594;28;20432;-49
2023/08/14 12:03:58;;;;;;;5.60;4.88;;;34.70;95.50;;;;;;4995578;28;20041;-54
2023/08/14 12:06:24;;;;;;;6.88;4.88;;;35.50;95.40;;;;;;4996407;28;20173;-52
2023/08/14 12:08:51;;;;;;;7.00;4.70;;;36.20;95.80;;;;;;4996437;28;20513;-54
2023/08/14 12:11:17;;;;;;;4.95;4.18;;;35.70;95.10;;;;;;4995886;28;20528;-48
2023/08/14 12:13:52;;;;;;;7.95;4.45;;;35.90;95.10;;;;;;4996205;28;20037;-56
2023/08/14 12:16:22;;;;;;;7.78;4.05;;;35.70;94.90;;;;;;4984872;28;20468;-49
2023/08/14 12:18:49;;;;;;;8.38;4.22;;;35.80;93.60;;;;;;4992461;28;20041;-48
2023/08/14 12:21:15;;;;;;;6.38;4.10;;;34.90;94.30;;;;;;4993775;28;20039;-53
2023/08/14 12:23:48;;;;;;;4.72;4.22;;;34.90;94.50;;;;;;4995785;28;20042;-52
2023/08/14 12:26:15;;;;;;;7.03;4.53;;;35.30;94.50;;;;;;4996623;28;20145;-52
2023/08/14 12:28:41;;;;;;;6.45;4.82;;;35.80;94.60;;;;;;4996341;28;20023;-55
2023/08/14 12:31:07;;;;;;;5.72;4.28;;;35.10;94.70;;;;;;4994117;28;20046;-52
2023/08/14 12:33:33;;;;;;;7.28;4.03;;;35.10;94.40;;;;;;4993887;28;20045;-54
2023/08/14 12:35:59;;;;;;;6.57;4.05;;;35.40;94.90;;;;;;4996344;28;20030;-53
2023/08/14 12:38:25;;;;;;;4.72;3.88;;;35.40;93.90;;;;;;4996021;28;20030;-54
2023/08/14 12:40:52;;;;;;;22.67;6.72;;;35.40;94.00;;;;;;5010042;28;20129;-52
2023/08/14 12:43:18;;;;;;;5.97;3.63;;;35.70;93.80;;;;;;5027026;28;20089;-54
2023/08/14 12:45:44;;;;;;;3.88;3.38;;;35.60;93.50;;;;;;4977812;28;20074;-51
2023/08/14 12:48:09;;;;;;;8.20;4.93;;;35.70;93.60;;;;;;4995891;28;20109;-51
2023/08/14 12:50:35;;;;;;;6.47;4.05;;;35.60;93.20;;;;;;4995515;28;20122;-54
2023/08/14 12:53:03;;;;;;;8.35;3.78;;;35.60;93.40;;;;;;4995624;28;20399;-50
2023/08/14 12:55:29;;;;;;;3.78;3.40;;;34.50;92.40;;;;;;4994897;28;20042;-54
2023/08/14 12:57:54;;;;;;;4.15;3.75;;;34.10;92.90;;;;;;4995725;28;20528;-52
2023/08/14 13:00:21;;;;;;;4.65;3.97;;;;;;;;;;4990757;28;20038;-54
2023/08/14 13:02:48;;;;;;;4.68;4.07;;;34.00;96.80;;;;;;4968207;28;20121;-51
2023/08/14 13:05:14;;;;;;;6.10;3.83;;;34.90;93.70;;;;;;4994926;28;20105;-53
2023/08/14 13:07:40;;;;;;;5.85;4.55;;;35.00;95.20;;;;;;4976268;28;20145;-52
2023/08/14 13:10:06;;;;;;;10.07;6.88;;;34.60;94.60;;;;;;4994289;28;20065;-52
2023/08/14 13:12:33;;;;;;;5.22;4.18;;;35.50;95.40;;;;;;4993067;28;20397;-57